createdAt,value
2022-11-25T00:01:32.036Z,95.70
2022-11-25T00:03:59.815Z,95.70
2022-11-25T00:06:33.146Z,95.70
2022-11-25T00:09:04.942Z,95.60
2022-11-25T00:11:36.238Z,95.50
2022-11-25T00:14:03.862Z,95.40
2022-11-25T00:16:31.332Z,95.30
2022-11-25T00:18:58.948Z,95.30
2022-11-25T00:21:29.193Z,95.20
2022-11-25T00:23:59.154Z,95.10
2022-11-25T00:26:28.264Z,95.00
2022-11-25T00:28:58.863Z,95.10
2022-11-25T00:31:29.020Z,95.10
2022-11-25T00:33:56.763Z,94.70
2022-11-25T00:36:30.388Z,94.70
2022-11-25T00:39:07.077Z,94.60
2022-11-25T00:41:53.168Z,94.50
2022-11-25T00:44:37.152Z,94.50
2022-11-25T00:47:19.314Z,94.50
2022-11-25T00:49:52.551Z,94.60
2022-11-25T00:52:23.823Z,94.60
2022-11-25T00:54:51.902Z,94.50
2022-11-25T00:57:21.819Z,94.50
2022-11-25T00:59:49.433Z,94.60
2022-11-25T01:02:18.491Z,94.60
2022-11-25T01:04:46.640Z,94.50
2022-11-25T01:07:17.780Z,94.50
2022-11-25T01:09:45.292Z,94.50
2022-11-25T01:12:12.747Z,94.40
2022-11-25T01:14:40.056Z,94.30
2022-11-25T01:17:07.361Z,94.30
2022-11-25T01:19:38.509Z,94.10
2022-11-25T01:22:07.322Z,94.00
2022-11-25T01:24:35.926Z,94.10
2022-11-25T01:27:03.534Z,94.20
2022-11-25T01:29:31.027Z,94.30
2022-11-25T01:31:58.543Z,94.20
2022-11-25T01:34:26.985Z,94.20
2022-11-25T01:36:57.827Z,94.10
2022-11-25T01:39:31.970Z,94.10
2022-11-25T01:42:01.792Z,94.00
2022-11-25T01:44:31.528Z,94.10
2022-11-25T01:47:23.461Z,94.00
2022-11-25T01:50:02.495Z,94.00
2022-11-25T01:52:44.702Z,94.10
2022-11-25T01:55:14.730Z,94.10
2022-11-25T01:57:46.223Z,94.10
2022-11-25T02:00:14.433Z,94.60
2022-11-25T02:02:50.471Z,94.60
2022-11-25T02:05:21.794Z,94.60
2022-11-25T02:07:51.294Z,94.60
2022-11-25T02:10:27.167Z,94.70
2022-11-25T02:12:54.967Z,94.80
2022-11-25T02:15:22.839Z,94.80
2022-11-25T02:17:50.390Z,94.80
2022-11-25T02:20:22.523Z,94.90
2022-11-25T02:23:11.325Z,94.90
2022-11-25T02:25:40.814Z,95.00
2022-11-25T02:28:19.247Z,95.10
2022-11-25T02:30:47.017Z,95.20
2022-11-25T02:33:16.043Z,95.20
2022-11-25T02:35:50.728Z,95.30
2022-11-25T02:38:47.881Z,95.30
2022-11-25T02:41:26.123Z,95.10
2022-11-25T02:43:58.974Z,94.90
2022-11-25T02:46:28.328Z,94.90
2022-11-25T02:49:13.007Z,94.70
2022-11-25T02:51:45.190Z,94.70
2022-11-25T02:54:14.869Z,94.60
2022-11-25T02:56:42.596Z,94.50
2022-11-25T02:59:10.602Z,94.50
2022-11-25T03:01:39.068Z,94.50
2022-11-25T03:04:09.037Z,94.50
2022-11-25T03:06:37.031Z,94.50
2022-11-25T03:09:04.684Z,94.60
2022-11-25T03:11:50.919Z,94.60
2022-11-25T03:14:18.978Z,94.70
2022-11-25T03:16:46.490Z,94.70
2022-11-25T03:19:13.888Z,94.60
2022-11-25T03:21:41.143Z,94.50
2022-11-25T03:24:08.624Z,94.40
2022-11-25T03:26:35.882Z,94.40
2022-11-25T03:29:04.372Z,94.30
2022-11-25T03:31:32.232Z,94.30
2022-11-25T03:33:59.554Z,94.30
2022-11-25T03:36:26.811Z,94.20
2022-11-25T03:38:54.048Z,94.20
2022-11-25T03:41:21.415Z,94.20
2022-11-25T03:43:49.428Z,94.20
2022-11-25T03:46:17.660Z,94.10
2022-11-25T03:48:45.821Z,94.00
2022-11-25T03:51:13.645Z,94.00
2022-11-25T03:53:41.343Z,94.00
2022-11-25T03:56:10.091Z,94.00
2022-11-25T03:58:37.409Z,94.00
2022-11-25T04:01:06.551Z,94.10
2022-11-25T04:03:34.404Z,94.00
2022-11-25T04:06:01.841Z,94.00
2022-11-25T04:08:30.485Z,94.10
2022-11-25T04:10:58.749Z,94.10
2022-11-25T04:13:29.914Z,94.10
2022-11-25T04:15:57.867Z,94.10
2022-11-25T04:18:26.565Z,94.10
2022-11-25T04:20:56.573Z,94.10
2022-11-25T04:23:24.326Z,94.10
2022-11-25T04:25:57.399Z,94.00
2022-11-25T04:28:31.443Z,94.00
2022-11-25T04:30:58.945Z,93.90
2022-11-25T04:33:26.295Z,93.90
2022-11-25T04:35:54.065Z,93.90
2022-11-25T04:38:21.774Z,93.80
2022-11-25T04:40:50.275Z,93.80
2022-11-25T04:43:20.844Z,93.70
2022-11-25T04:46:15.967Z,93.80
2022-11-25T04:48:47.579Z,93.80
2022-11-25T04:51:16.108Z,93.90
2022-11-25T04:53:45.602Z,93.90
2022-11-25T04:56:18.953Z,94.00
2022-11-25T04:59:05.969Z,94.10
2022-11-25T05:01:36.536Z,94.20
2022-11-25T05:04:17.230Z,94.20
2022-11-25T05:06:45.683Z,94.40
2022-11-25T05:09:13.897Z,94.50
2022-11-25T05:11:44.555Z,94.60
2022-11-25T05:14:12.164Z,94.60
2022-11-25T05:16:40.070Z,94.70
2022-11-25T05:19:09.341Z,94.80
2022-11-25T05:21:36.668Z,94.90
2022-11-25T05:24:04.536Z,94.90
2022-11-25T05:26:33.684Z,94.90
2022-11-25T05:29:01.873Z,95.00
2022-11-25T05:31:31.716Z,95.00
2022-11-25T05:34:03.015Z,95.10
2022-11-25T05:36:31.964Z,95.00
2022-11-25T05:38:59.802Z,95.00
2022-11-25T05:41:43.447Z,94.90
2022-11-25T05:44:11.022Z,95.00
2022-11-25T05:46:39.709Z,94.90
2022-11-25T05:49:07.762Z,94.90
2022-11-25T05:51:35.440Z,95.00
2022-11-25T05:54:05.268Z,95.10
2022-11-25T05:56:35.805Z,95.20
2022-11-25T05:59:26.415Z,95.30
2022-11-25T06:02:04.144Z,95.30
2022-11-25T06:04:32.189Z,95.40
2022-11-25T06:06:59.562Z,95.50
2022-11-25T06:09:26.863Z,95.40
2022-11-25T06:11:54.159Z,95.40
2022-11-25T06:14:21.434Z,95.50
2022-11-25T06:16:50.532Z,95.30
2022-11-25T06:19:42.260Z,95.30
2022-11-25T06:22:09.556Z,95.70
2022-11-25T06:24:37.471Z,95.40
2022-11-25T06:27:07.811Z,95.50
2022-11-25T06:29:36.031Z,95.60
2022-11-25T06:32:03.790Z,95.60
2022-11-25T06:34:42.852Z,95.70
2022-11-25T06:37:28.657Z,95.70
2022-11-25T06:39:56.054Z,95.70
2022-11-25T06:42:23.347Z,95.70
2022-11-25T06:44:50.979Z,95.80
2022-11-25T06:47:18.208Z,95.80
2022-11-25T06:49:45.801Z,95.70
2022-11-25T06:52:13.070Z,95.60
2022-11-25T06:54:41.451Z,95.60
2022-11-25T06:57:09.613Z,95.60
2022-11-25T06:59:37.446Z,95.60
2022-11-25T07:02:05.149Z,95.60
2022-11-25T07:04:35.487Z,95.50
2022-11-25T07:07:03.926Z,95.30
2022-11-25T07:09:31.425Z,95.30
2022-11-25T07:11:58.826Z,95.30
2022-11-25T07:14:26.354Z,95.10
2022-11-25T07:16:53.743Z,95.00
2022-11-25T07:19:21.244Z,95.10
2022-11-25T07:21:48.664Z,95.00
2022-11-25T07:24:17.928Z,95.00
2022-11-25T07:26:45.582Z,95.10
2022-11-25T07:32:08.896Z,95.20
2022-11-25T07:34:38.338Z,95.20
2022-11-25T07:37:05.553Z,95.10
2022-11-25T07:39:32.912Z,95.10
2022-11-25T07:42:00.166Z,95.10
2022-11-25T07:44:27.422Z,95.10
2022-11-25T07:47:02.019Z,95.40
2022-11-25T07:49:29.294Z,95.20
2022-11-25T07:52:02.368Z,95.20
2022-11-25T07:54:29.878Z,95.20
2022-11-25T07:56:57.141Z,95.10
2022-11-25T07:59:24.944Z,95.00
2022-11-25T08:01:56.731Z,94.90
2022-11-25T08:04:24.455Z,95.00
2022-11-25T08:06:53.240Z,95.00
2022-11-25T08:09:24.101Z,95.00
2022-11-25T08:11:52.524Z,95.00
2022-11-25T08:14:20.418Z,95.00
2022-11-25T08:16:47.772Z,94.80
2022-11-25T08:19:17.408Z,94.70
2022-11-25T08:21:47.769Z,94.60
2022-11-25T08:24:17.585Z,94.40
2022-11-25T08:26:45.076Z,94.20
2022-11-25T08:29:17.535Z,94.00
2022-11-25T08:31:45.127Z,93.90
2022-11-25T08:34:24.250Z,93.30
2022-11-25T08:36:56.741Z,93.20
2022-11-25T08:42:11.440Z,92.90
2022-11-25T08:44:38.751Z,92.90
2022-11-25T08:47:06.367Z,92.80
2022-11-25T08:49:39.161Z,92.70
2022-11-25T08:52:08.117Z,92.60
2022-11-25T08:54:40.716Z,92.60
2022-11-25T08:57:08.199Z,92.40
2022-11-25T08:59:36.148Z,92.20
2022-11-25T09:02:04.311Z,92.10
2022-11-25T09:04:32.221Z,91.90
2022-11-25T09:07:00.139Z,91.90
2022-11-25T09:09:28.087Z,91.80
2022-11-25T09:11:55.438Z,91.60
2022-11-25T09:14:22.840Z,91.50
2022-11-25T09:16:50.332Z,91.40
2022-11-25T09:19:17.938Z,91.20
2022-11-25T09:21:45.160Z,91.10
2022-11-25T09:24:12.505Z,91.00
2022-11-25T09:26:41.245Z,90.80
2022-11-25T09:29:08.965Z,90.60
2022-11-25T09:31:36.590Z,90.50
2022-11-25T09:34:04.326Z,90.50
2022-11-25T09:36:31.631Z,90.50
2022-11-25T09:38:58.954Z,90.40
2022-11-25T09:42:07.280Z,90.20
2022-11-25T09:45:19.894Z,90.20
2022-11-25T09:47:57.190Z,90.20
2022-11-25T09:50:47.311Z,90.20
2022-11-25T09:53:40.649Z,90.10
2022-11-25T09:56:29.566Z,90.30
2022-11-25T09:59:07.632Z,90.00
2022-11-25T10:01:46.230Z,89.90
2022-11-25T10:04:24.868Z,89.80
2022-11-25T10:06:57.659Z,89.30
2022-11-25T10:09:27.914Z,89.40
2022-11-25T10:11:59.842Z,89.60
2022-11-25T10:14:49.735Z,89.30
2022-11-25T10:17:42.078Z,89.00
2022-11-25T10:20:29.297Z,89.30
2022-11-25T10:23:01.967Z,89.40
2022-11-25T10:25:35.260Z,89.50
2022-11-25T10:28:18.788Z,89.30
2022-11-25T10:31:16.555Z,88.90
2022-11-25T10:33:48.110Z,88.60
2022-11-25T10:36:18.225Z,88.40
2022-11-25T10:38:59.192Z,89.10
2022-11-25T10:41:33.466Z,89.10
2022-11-25T10:44:00.738Z,88.90
2022-11-25T10:47:15.685Z,88.50
2022-11-25T10:50:08.876Z,88.50
2022-11-25T10:52:50.872Z,88.20
2022-11-25T10:55:26.793Z,88.10
2022-11-25T10:57:55.316Z,88.30
2022-11-25T11:00:35.836Z,87.90
2022-11-25T11:03:33.156Z,87.90
2022-11-25T11:06:00.549Z,87.90
2022-11-25T11:08:39.609Z,88.10
2022-11-25T11:11:10.097Z,87.00
2022-11-25T11:13:37.640Z,86.20
2022-11-25T11:16:21.099Z,86.40
2022-11-25T11:18:48.682Z,86.00
2022-11-25T11:21:42.815Z,85.50
2022-11-25T11:24:38.221Z,84.80
2022-11-25T11:27:22.639Z,84.70
2022-11-25T11:30:10.256Z,84.20
2022-11-25T11:33:02.458Z,83.60
2022-11-25T11:35:41.986Z,83.90
2022-11-25T11:38:39.288Z,83.70
2022-11-25T11:41:38.976Z,83.40
2022-11-25T11:44:25.726Z,83.80
2022-11-25T11:47:23.356Z,83.20
2022-11-25T11:50:05.269Z,83.00
2022-11-25T11:52:48.878Z,82.70
2022-11-25T11:55:43.749Z,83.70
2022-11-25T11:58:17.685Z,82.70
2022-11-25T12:01:21.453Z,82.80
2022-11-25T12:04:04.028Z,82.80
2022-11-25T12:06:36.972Z,82.80
2022-11-25T12:09:25.069Z,83.20
2022-11-25T12:11:56.365Z,83.40
2022-11-25T12:14:23.674Z,83.10
2022-11-25T12:16:56.511Z,82.80
2022-11-25T12:19:50.317Z,82.50
2022-11-25T12:22:58.198Z,82.40
2022-11-25T12:25:37.535Z,82.20
2022-11-25T12:28:16.846Z,82.20
2022-11-25T12:31:06.490Z,82.80
2022-11-25T12:33:44.200Z,82.70
2022-11-25T12:36:37.929Z,82.50
2022-11-25T12:39:36.616Z,82.40
2022-11-25T12:42:13.926Z,82.50
2022-11-25T12:44:46.757Z,82.90
2022-11-25T12:47:14.087Z,83.00
2022-11-25T12:49:45.052Z,83.00
2022-11-25T12:52:35.010Z,82.80
2022-11-25T12:55:14.874Z,82.80
2022-11-25T12:58:10.427Z,82.80
2022-11-25T13:00:47.030Z,83.10
2022-11-25T13:03:51.833Z,83.30
2022-11-25T13:06:42.617Z,83.30
2022-11-25T13:09:46.609Z,83.10
2022-11-25T13:12:28.174Z,82.80
2022-11-25T13:15:05.568Z,82.80
2022-11-25T13:17:40.014Z,82.80
2022-11-25T13:20:29.028Z,82.60
2022-11-25T13:23:05.321Z,82.10
2022-11-25T13:25:34.079Z,82.50
2022-11-25T13:28:04.545Z,82.90
2022-11-25T13:30:37.958Z,83.00
2022-11-25T13:33:25.582Z,82.80
2022-11-25T13:35:54.729Z,82.70
2022-11-25T13:38:35.554Z,82.70
2022-11-25T13:41:21.308Z,82.90
2022-11-25T13:44:17.111Z,83.30
2022-11-25T13:46:47.929Z,83.50
2022-11-25T13:49:33.834Z,83.70
2022-11-25T13:52:22.458Z,83.90
2022-11-25T13:54:55.857Z,84.00
2022-11-25T13:57:37.882Z,84.10
2022-11-25T14:00:19.394Z,85.00
2022-11-25T14:02:50.027Z,84.60
2022-11-25T14:05:41.752Z,84.80
2022-11-25T14:08:20.706Z,85.00
2022-11-25T14:11:17.171Z,85.10
2022-11-25T14:14:19.581Z,85.50
2022-11-25T14:16:52.919Z,85.90
2022-11-25T14:19:51.543Z,86.20
2022-11-25T14:22:56.814Z,86.60
2022-11-25T14:25:29.176Z,86.80
2022-11-25T14:28:25.798Z,87.10
2022-11-25T14:30:59.507Z,87.60
2022-11-25T14:34:05.164Z,87.80
2022-11-25T14:36:39.183Z,88.30
2022-11-25T14:39:13.753Z,88.70
2022-11-25T14:42:02.829Z,89.00
2022-11-25T14:44:40.724Z,89.40
2022-11-25T14:47:08.067Z,89.60
2022-11-25T14:50:05.668Z,89.90
2022-11-25T14:52:43.855Z,90.10
2022-11-25T14:55:11.800Z,90.10
2022-11-25T14:57:43.969Z,90.20
2022-11-25T15:00:17.079Z,90.40
2022-11-25T15:03:03.293Z,90.50
2022-11-25T15:05:40.916Z,90.50
2022-11-25T15:08:08.346Z,90.60
2022-11-25T15:10:41.654Z,90.60
2022-11-25T15:13:22.893Z,90.60
2022-11-25T15:15:52.482Z,90.60
2022-11-25T15:18:22.800Z,90.60
2022-11-25T15:20:59.172Z,90.80
2022-11-25T15:23:32.005Z,90.70
2022-11-25T15:25:59.546Z,90.70
2022-11-25T15:28:27.166Z,90.80
2022-11-25T15:31:02.531Z,91.30
2022-11-25T15:33:30.737Z,91.50
2022-11-25T15:35:58.066Z,91.60
2022-11-25T15:38:44.243Z,91.60
2022-11-25T15:41:21.807Z,91.80
2022-11-25T15:43:54.104Z,91.70
2022-11-25T15:46:22.834Z,91.80
2022-11-25T15:48:53.392Z,91.80
2022-11-25T15:51:41.829Z,91.90
2022-11-25T15:54:24.487Z,91.90
2022-11-25T15:56:55.870Z,92.00
2022-11-25T15:59:41.705Z,92.00
2022-11-25T16:02:43.857Z,92.10
2022-11-25T16:05:18.504Z,92.30
2022-11-25T16:07:52.349Z,92.30
2022-11-25T16:10:49.708Z,92.40
2022-11-25T16:13:30.532Z,92.50
2022-11-25T16:16:29.978Z,92.60
2022-11-25T16:19:11.718Z,92.60
2022-11-25T16:21:46.310Z,92.80
2022-11-25T16:24:49.006Z,92.80
2022-11-25T16:27:25.392Z,93.00
2022-11-25T16:30:06.424Z,93.00
2022-11-25T16:32:34.959Z,93.00
2022-11-25T16:35:25.517Z,93.00
2022-11-25T16:37:58.267Z,93.00
2022-11-25T16:40:29.568Z,93.10
2022-11-25T16:42:56.952Z,93.10
2022-11-25T16:45:27.564Z,93.30
2022-11-25T16:47:55.079Z,93.30
2022-11-25T16:50:23.651Z,93.30
2022-11-25T16:52:51.491Z,93.40
2022-11-25T16:55:23.798Z,93.40
2022-11-25T16:57:54.222Z,93.40
2022-11-25T17:00:22.338Z,93.40
2022-11-25T17:02:49.869Z,93.40
2022-11-25T17:05:19.505Z,93.40
2022-11-25T17:07:52.354Z,93.50
2022-11-25T17:10:21.486Z,93.50
2022-11-25T17:12:49.552Z,93.50
2022-11-25T17:15:19.936Z,93.40
2022-11-25T17:17:49.265Z,93.50
2022-11-25T17:20:19.207Z,93.50
2022-11-25T17:22:46.872Z,93.50
2022-11-25T17:25:15.799Z,93.50
2022-11-25T17:27:46.167Z,93.90
2022-11-25T17:30:25.607Z,93.70
2022-11-25T17:33:15.068Z,93.80
2022-11-25T17:35:43.327Z,93.80
2022-11-25T17:38:22.932Z,93.80
2022-11-25T17:40:50.712Z,93.70
2022-11-25T17:43:21.127Z,93.80
2022-11-25T17:45:50.423Z,93.80
2022-11-25T17:48:18.439Z,93.80
2022-11-25T17:50:47.390Z,93.90
2022-11-25T17:53:14.741Z,93.90
2022-11-25T17:55:43.101Z,93.80
2022-11-25T17:58:12.503Z,93.80
2022-11-25T18:00:44.487Z,93.80
2022-11-25T18:03:18.449Z,93.80
2022-11-25T18:05:46.212Z,93.90
2022-11-25T18:08:13.518Z,93.90
2022-11-25T18:10:44.371Z,93.80
2022-11-25T18:13:23.748Z,93.90
2022-11-25T18:15:52.790Z,93.90
2022-11-25T18:18:23.430Z,93.90
2022-11-25T18:20:52.253Z,94.20
2022-11-25T18:23:19.942Z,93.90
2022-11-25T18:25:47.335Z,93.90
2022-11-25T18:28:20.795Z,93.90
2022-11-25T18:30:49.361Z,93.90
2022-11-25T18:33:18.779Z,94.00
2022-11-25T18:35:47.031Z,93.90
2022-11-25T18:38:14.469Z,94.00
2022-11-25T18:40:47.481Z,94.00
2022-11-25T18:43:23.313Z,94.00
2022-11-25T18:45:51.744Z,94.00
2022-11-25T18:48:24.401Z,94.00
2022-11-25T18:50:54.460Z,94.10
2022-11-25T18:53:22.038Z,94.10
2022-11-25T18:55:50.035Z,94.10
2022-11-25T18:58:24.449Z,94.10
2022-11-25T19:00:52.680Z,94.10
2022-11-25T19:03:25.430Z,94.10
2022-11-25T19:05:59.353Z,94.10
2022-11-25T19:08:27.092Z,94.20
2022-11-25T19:10:54.796Z,94.20
2022-11-25T19:13:25.942Z,94.20
2022-11-25T19:15:54.557Z,94.20
2022-11-25T19:18:26.983Z,94.20
2022-11-25T19:20:55.109Z,94.30
2022-11-25T19:23:25.585Z,94.20
2022-11-25T19:25:56.043Z,94.20
2022-11-25T19:28:24.154Z,94.40
2022-11-25T19:30:57.430Z,94.40
2022-11-25T19:33:32.610Z,94.30
2022-11-25T19:36:00.453Z,94.30
2022-11-25T19:38:27.905Z,94.20
2022-11-25T19:40:56.679Z,94.10
2022-11-25T19:43:28.052Z,94.00
2022-11-25T19:45:57.072Z,94.10
2022-11-25T19:48:27.214Z,94.10
2022-11-25T19:51:03.894Z,94.10
2022-11-25T19:53:34.105Z,94.20
2022-11-25T19:56:04.812Z,94.20
2022-11-25T19:58:32.395Z,94.20
2022-11-25T20:01:03.479Z,94.20
2022-11-25T20:03:31.821Z,94.20
2022-11-25T20:05:59.215Z,94.20
2022-11-25T20:08:28.934Z,94.20
2022-11-25T20:10:56.843Z,94.10
2022-11-25T20:13:26.212Z,94.10
2022-11-25T20:15:55.217Z,94.10
2022-11-25T20:18:25.271Z,94.10
2022-11-25T20:21:04.679Z,94.10
2022-11-25T20:23:44.128Z,94.20
2022-11-25T20:26:45.830Z,94.30
2022-11-25T20:29:23.629Z,94.30
2022-11-25T20:31:56.127Z,94.20
2022-11-25T20:34:24.855Z,94.30
2022-11-25T20:36:52.270Z,94.30
2022-11-25T20:39:20.540Z,94.30
2022-11-25T20:41:52.675Z,94.40
2022-11-25T20:44:20.932Z,94.50
2022-11-25T20:46:48.268Z,94.60
2022-11-25T20:49:27.722Z,94.60
2022-11-25T20:51:56.164Z,94.70
2022-11-25T20:54:26.569Z,94.60
2022-11-25T20:56:57.246Z,94.60
2022-11-25T20:59:24.945Z,94.90
2022-11-25T21:01:54.978Z,94.60
2022-11-25T21:04:23.186Z,94.60
2022-11-25T21:06:50.596Z,94.50
2022-11-25T21:09:24.860Z,94.50
2022-11-25T21:11:52.131Z,94.40
2022-11-25T21:14:20.230Z,94.40
2022-11-25T21:16:47.860Z,94.50
2022-11-25T21:19:15.296Z,94.50
2022-11-25T21:21:45.510Z,94.50
2022-11-25T21:24:23.471Z,94.60
2022-11-25T21:26:51.495Z,94.70
2022-11-25T21:29:19.117Z,94.80
2022-11-25T21:31:46.415Z,94.90
2022-11-25T21:34:14.867Z,94.90
2022-11-25T21:36:44.598Z,95.00
2022-11-25T21:39:21.367Z,94.90
2022-11-25T21:41:48.878Z,95.00
2022-11-25T21:44:25.774Z,94.90
2022-11-25T21:46:53.774Z,94.90
2022-11-25T21:49:21.379Z,95.00
2022-11-25T21:51:48.631Z,94.90
2022-11-25T21:54:16.136Z,94.90
2022-11-25T21:56:44.713Z,94.90
2022-11-25T21:59:19.342Z,95.10
2022-11-25T22:01:47.361Z,94.90
2022-11-25T22:04:16.861Z,95.00
2022-11-25T22:06:44.542Z,95.00
2022-11-25T22:09:12.415Z,95.00
2022-11-25T22:11:57.947Z,94.90
2022-11-25T22:14:37.105Z,94.90
2022-11-25T22:17:10.419Z,94.80
2022-11-25T22:19:37.678Z,94.80
2022-11-25T22:22:11.902Z,94.90
2022-11-25T22:24:39.332Z,95.00
2022-11-25T22:27:15.637Z,95.00
2022-11-25T22:29:43.000Z,95.00
2022-11-25T22:32:14.500Z,95.20
2022-11-25T22:34:41.872Z,95.30
2022-11-25T22:37:16.619Z,95.50
2022-11-25T22:39:43.982Z,95.70
2022-11-25T22:42:19.861Z,95.70
2022-11-25T22:44:49.650Z,95.70
2022-11-25T22:47:23.951Z,95.50
2022-11-25T22:49:52.757Z,95.70
2022-11-25T22:52:27.092Z,95.30
2022-11-25T22:54:54.921Z,95.50
2022-11-25T22:57:22.378Z,95.60
2022-11-25T22:59:49.713Z,95.80
2022-11-25T23:02:23.819Z,95.70
2022-11-25T23:04:55.141Z,95.70
2022-11-25T23:07:23.686Z,95.70
2022-11-25T23:09:51.861Z,95.70
2022-11-25T23:12:19.497Z,95.70
2022-11-25T23:14:46.745Z,95.90
2022-11-25T23:17:17.248Z,95.70
2022-11-25T23:19:44.696Z,95.80
2022-11-25T23:22:12.571Z,95.80
2022-11-25T23:24:44.978Z,95.70
2022-11-25T23:27:12.942Z,95.90
2022-11-25T23:29:40.916Z,95.70
2022-11-25T23:32:18.186Z,95.60
2022-11-25T23:34:46.323Z,95.60
2022-11-25T23:37:14.648Z,95.50
2022-11-25T23:39:42.556Z,95.50
2022-11-25T23:42:20.471Z,95.50
2022-11-25T23:44:47.931Z,95.50
2022-11-25T23:47:22.093Z,95.50
2022-11-25T23:49:52.844Z,95.50
2022-11-25T23:52:26.772Z,95.50
2022-11-25T23:54:54.792Z,95.60
2022-11-25T23:57:29.844Z,95.90
2022-11-25T23:59:57.207Z,95.60
